createdAt,value
2022-11-28T00:00:22.003Z,153.30
2022-11-28T00:02:56.095Z,181.30
2022-11-28T00:05:23.939Z,155.75
2022-11-28T00:10:56.406Z,165.20
2022-11-28T00:13:23.324Z,172.38
2022-11-28T00:16:34.929Z,159.80
2022-11-28T00:19:07.169Z,150.50
2022-11-28T00:22:22.071Z,170.63
2022-11-28T00:25:15.892Z,171.60
2022-11-28T00:31:20.354Z,166.00
2022-11-28T00:40:17.759Z,158.60
2022-11-28T00:42:52.784Z,151.48
2022-11-28T00:45:19.500Z,159.05
2022-11-28T00:47:50.394Z,151.50
2022-11-28T00:50:24.188Z,152.27
2022-11-28T00:53:19.492Z,157.68
2022-11-28T00:55:49.908Z,147.02
2022-11-28T00:58:20.255Z,147.57
2022-11-28T01:00:46.917Z,152.98
2022-11-28T01:03:42.834Z,156.52
2022-11-28T01:06:11.715Z,158.95
2022-11-28T01:11:56.597Z,155.77
2022-11-28T01:14:51.137Z,147.98
2022-11-28T01:17:18.030Z,152.05
2022-11-28T01:19:46.668Z,159.52
2022-11-28T01:22:17.860Z,158.63
2022-11-28T01:24:44.833Z,168.80
2022-11-28T01:27:15.286Z,153.13
2022-11-28T01:29:57.078Z,157.30
2022-11-28T01:39:10.079Z,165.23
2022-11-28T01:45:00.312Z,151.88
2022-11-28T01:47:35.026Z,139.18
2022-11-28T01:53:00.777Z,142.27
2022-11-28T01:55:31.766Z,153.25
2022-11-28T02:01:06.296Z,139.95
2022-11-28T02:04:00.111Z,135.45
2022-11-28T02:13:08.415Z,149.77
2022-11-28T02:16:15.196Z,153.38
2022-11-28T02:22:41.656Z,134.60
2022-11-28T02:26:09.355Z,135.18
2022-11-28T02:29:13.892Z,127.45
2022-11-28T02:32:19.637Z,118.63
2022-11-28T02:35:01.678Z,122.45
2022-11-28T02:37:34.253Z,117.20
2022-11-28T02:40:13.050Z,108.50
2022-11-28T02:43:23.020Z,119.57
2022-11-28T02:46:04.624Z,121.30
2022-11-28T02:49:14.367Z,113.45
2022-11-28T02:51:46.240Z,112.22
2022-11-28T02:54:16.088Z,109.93
2022-11-28T02:56:50.827Z,103.13
2022-11-28T02:59:39.697Z,97.70
2022-11-28T03:02:21.385Z,100.90
2022-11-28T03:05:18.001Z,92.40
2022-11-28T03:08:12.650Z,95.43
2022-11-28T03:10:52.888Z,97.60
2022-11-28T03:13:28.418Z,98.38
2022-11-28T03:16:17.790Z,92.68
2022-11-28T03:19:04.991Z,87.00
2022-11-28T03:21:41.801Z,92.18
2022-11-28T03:24:25.451Z,86.63
2022-11-28T03:27:36.656Z,88.43
2022-11-28T03:30:19.540Z,91.85
2022-11-28T03:32:50.050Z,89.00
2022-11-28T03:35:20.725Z,96.15
2022-11-28T03:40:29.127Z,92.32
2022-11-28T03:43:04.759Z,85.38
2022-11-28T03:45:51.984Z,86.95
2022-11-28T03:48:29.037Z,91.57
2022-11-28T03:51:18.138Z,85.05
2022-11-28T03:54:01.497Z,87.15
2022-11-28T03:56:55.183Z,90.93
2022-11-28T03:59:48.659Z,84.82
2022-11-28T04:02:36.472Z,85.20
2022-11-28T04:05:21.316Z,92.45
2022-11-28T04:07:56.252Z,82.45
2022-11-28T04:10:38.100Z,91.60
2022-11-28T04:13:26.090Z,84.20
2022-11-28T04:16:20.033Z,87.63
2022-11-28T04:19:19.436Z,83.70
2022-11-28T04:22:22.043Z,82.43
2022-11-28T04:25:17.123Z,76.70
2022-11-28T04:27:49.763Z,72.22
2022-11-28T04:30:16.613Z,77.90
2022-11-28T04:32:50.010Z,74.10
2022-11-28T04:35:40.276Z,75.90
2022-11-28T04:38:09.413Z,82.63
2022-11-28T04:40:43.346Z,80.13
2022-11-28T04:43:18.540Z,84.50
2022-11-28T04:45:51.165Z,77.15
2022-11-28T04:48:19.820Z,76.80
2022-11-28T04:50:46.481Z,83.50
2022-11-28T04:53:20.981Z,79.80
2022-11-28T04:56:01.641Z,74.25
2022-11-28T04:58:43.557Z,76.85
2022-11-28T05:01:16.741Z,72.38
2022-11-28T05:03:43.748Z,75.57
2022-11-28T05:06:10.752Z,71.63
2022-11-28T05:08:37.455Z,72.75
2022-11-28T05:11:06.676Z,73.10
2022-11-28T05:13:33.473Z,67.63
2022-11-28T05:16:03.577Z,71.82
2022-11-28T05:18:32.302Z,69.88
2022-11-28T05:20:59.326Z,70.13
2022-11-28T05:23:29.844Z,73.07
2022-11-28T05:25:56.707Z,74.95
2022-11-28T05:28:23.433Z,80.15
2022-11-28T05:30:58.303Z,81.85
2022-11-28T05:33:25.036Z,73.95
2022-11-28T05:35:51.696Z,80.07
2022-11-28T05:38:18.864Z,78.82
2022-11-28T05:40:45.578Z,79.55
2022-11-28T05:43:12.614Z,76.60
2022-11-28T05:45:44.822Z,72.38
2022-11-28T05:48:12.043Z,70.97
2022-11-28T05:50:40.797Z,75.97
2022-11-28T05:53:08.186Z,88.70
2022-11-28T05:55:38.316Z,94.50
2022-11-28T05:58:05.150Z,101.15
2022-11-28T06:00:32.107Z,99.88
2022-11-28T06:03:01.991Z,103.18
2022-11-28T06:05:42.051Z,99.00
2022-11-28T06:08:12.583Z,101.45
2022-11-28T06:10:39.805Z,99.68
2022-11-28T06:13:06.606Z,100.55
2022-11-28T06:15:37.809Z,92.38
2022-11-28T06:18:05.351Z,79.40
2022-11-28T06:20:32.003Z,88.43
2022-11-28T06:22:58.631Z,73.50
2022-11-28T06:25:26.402Z,70.43
2022-11-28T06:27:53.078Z,68.55
2022-11-28T06:30:19.772Z,69.10
2022-11-28T06:32:46.589Z,74.95
2022-11-28T06:35:13.326Z,68.57
2022-11-28T06:37:40.096Z,70.28
2022-11-28T06:40:07.566Z,68.40
2022-11-28T06:42:37.401Z,71.07
2022-11-28T06:45:05.669Z,73.32
2022-11-28T06:47:32.566Z,66.70
2022-11-28T06:49:59.228Z,72.78
2022-11-28T06:52:26.444Z,73.25
2022-11-28T06:54:53.301Z,76.05
2022-11-28T06:57:19.961Z,72.95
2022-11-28T06:59:48.800Z,71.50
2022-11-28T07:02:16.675Z,75.68
2022-11-28T07:04:43.327Z,73.38
2022-11-28T07:07:13.692Z,75.90
2022-11-28T07:09:43.894Z,74.93
2022-11-28T07:12:10.846Z,86.57
2022-11-28T07:14:38.205Z,87.47
2022-11-28T07:17:05.072Z,84.53
2022-11-28T07:19:31.732Z,83.97
2022-11-28T07:21:58.502Z,84.82
2022-11-28T07:24:29.253Z,82.38
2022-11-28T07:26:56.582Z,92.63
2022-11-28T07:29:24.505Z,87.82
2022-11-28T07:31:51.553Z,86.40
2022-11-28T07:34:18.258Z,92.63
2022-11-28T07:36:44.994Z,103.45
2022-11-28T07:39:16.100Z,96.60
2022-11-28T07:41:42.841Z,78.60
2022-11-28T07:44:10.246Z,79.85
2022-11-28T07:46:37.402Z,81.32
2022-11-28T07:49:04.373Z,80.55
2022-11-28T07:51:33.366Z,84.72
2022-11-28T07:54:01.622Z,89.80
2022-11-28T07:56:50.066Z,76.57
2022-11-28T07:59:19.242Z,73.68
2022-11-28T08:01:46.010Z,78.00
2022-11-28T08:04:12.696Z,76.13
2022-11-28T08:06:42.375Z,69.88
2022-11-28T08:09:09.518Z,69.85
2022-11-28T08:11:36.503Z,74.30
2022-11-28T08:14:04.158Z,73.05
2022-11-28T08:16:31.427Z,78.00
2022-11-28T08:19:02.186Z,77.32
2022-11-28T08:21:31.545Z,80.20
2022-11-28T08:24:02.628Z,91.45
2022-11-28T08:26:31.545Z,88.30
2022-11-28T08:28:59.994Z,78.90
2022-11-28T08:31:30.304Z,78.65
2022-11-28T08:33:59.768Z,72.15
2022-11-28T08:36:29.191Z,71.97
2022-11-28T08:39:22.739Z,83.40
2022-11-28T08:41:43.442Z,69.28
2022-11-28T08:44:10.162Z,67.28
2022-11-28T08:46:42.674Z,64.05
2022-11-28T08:49:16.434Z,69.22
2022-11-28T08:51:43.204Z,68.90
2022-11-28T08:54:10.023Z,63.17
2022-11-28T08:56:36.934Z,63.95
2022-11-28T08:59:06.572Z,55.20
2022-11-28T09:01:34.387Z,49.22
2022-11-28T09:04:01.441Z,50.55
2022-11-28T09:06:28.778Z,48.40
2022-11-28T09:08:55.430Z,53.33
2022-11-28T09:11:23.283Z,54.95
2022-11-28T09:13:50.385Z,48.88
2022-11-28T09:16:18.009Z,60.42
2022-11-28T09:18:44.751Z,39.83
2022-11-28T09:21:13.875Z,38.72
2022-11-28T09:23:42.235Z,33.53
2022-11-28T09:26:18.752Z,33.65
2022-11-28T09:28:46.162Z,34.03
2022-11-28T09:31:14.598Z,33.92
2022-11-28T09:33:41.635Z,31.30
2022-11-28T09:36:14.093Z,33.40
2022-11-28T09:38:41.131Z,32.72
2022-11-28T09:41:38.967Z,35.60
2022-11-28T09:44:20.372Z,35.67
2022-11-28T09:46:49.872Z,34.67
2022-11-28T09:49:23.488Z,34.33
2022-11-28T09:52:17.207Z,37.20
2022-11-28T09:55:02.047Z,33.40
2022-11-28T09:57:41.711Z,39.15
2022-11-28T10:00:21.616Z,41.72
2022-11-28T10:03:17.066Z,30.65
2022-11-28T10:05:53.138Z,34.80
2022-11-28T10:08:26.067Z,33.38
2022-11-28T10:11:04.199Z,32.63
2022-11-28T10:14:06.719Z,25.90
2022-11-28T10:16:57.525Z,30.50
2022-11-28T10:19:54.181Z,29.38
2022-11-28T10:22:33.889Z,30.83
2022-11-28T10:25:06.455Z,27.40
2022-11-28T10:27:35.634Z,32.97
2022-11-28T10:30:07.882Z,29.90
2022-11-28T10:32:44.265Z,31.77
2022-11-28T10:35:41.866Z,27.50
2022-11-28T10:38:13.652Z,27.83
2022-11-28T10:40:49.086Z,26.65
2022-11-28T10:43:38.744Z,30.42
2022-11-28T10:46:21.840Z,30.48
2022-11-28T10:49:17.731Z,25.83
2022-11-28T10:51:56.675Z,24.92
2022-11-28T10:54:50.782Z,28.95
2022-11-28T10:57:27.833Z,29.30
2022-11-28T11:00:12.896Z,25.80
2022-11-28T11:02:52.044Z,25.90
2022-11-28T11:05:22.194Z,27.45
2022-11-28T11:07:55.066Z,28.30
2022-11-28T11:10:43.167Z,27.38
2022-11-28T11:13:23.702Z,24.63
2022-11-28T11:16:11.652Z,27.67
2022-11-28T11:18:53.297Z,25.75
2022-11-28T11:21:24.817Z,31.67
2022-11-28T11:24:11.726Z,30.55
2022-11-28T11:26:41.899Z,32.45
2022-11-28T11:29:32.036Z,39.03
2022-11-28T11:32:04.255Z,35.15
2022-11-28T11:34:44.342Z,32.72
2022-11-28T11:37:20.683Z,35.10
2022-11-28T11:39:52.700Z,35.67
2022-11-28T11:42:23.766Z,32.42
2022-11-28T11:44:51.112Z,24.35
2022-11-28T11:47:17.791Z,25.42
2022-11-28T11:49:48.875Z,27.73
2022-11-28T11:52:23.007Z,28.15
2022-11-28T11:54:58.162Z,25.65
2022-11-28T11:57:38.086Z,26.40
2022-11-28T12:00:14.853Z,26.73
2022-11-28T12:02:46.776Z,28.75
2022-11-28T12:05:41.808Z,26.73
2022-11-28T12:08:31.736Z,29.75
2022-11-28T12:11:12.669Z,28.88
2022-11-28T12:13:39.413Z,30.25
2022-11-28T12:16:48.270Z,31.63
2022-11-28T12:19:33.950Z,35.90
2022-11-28T12:22:31.118Z,32.53
2022-11-28T12:25:15.430Z,32.53
2022-11-28T12:28:02.937Z,54.40
2022-11-28T12:30:56.146Z,25.98
2022-11-28T12:33:51.038Z,36.92
2022-11-28T12:36:29.869Z,46.20
2022-11-28T12:39:38.024Z,30.73
2022-11-28T12:42:26.451Z,31.00
2022-11-28T12:45:05.126Z,33.95
2022-11-28T12:47:57.027Z,26.02
2022-11-28T12:50:37.520Z,31.80
2022-11-28T12:53:15.117Z,29.58
2022-11-28T12:56:03.174Z,30.45
2022-11-28T12:58:35.685Z,29.98
2022-11-28T13:01:26.829Z,30.85
2022-11-28T13:04:12.172Z,30.35
2022-11-28T13:07:28.507Z,28.35
2022-11-28T13:10:19.810Z,30.95
2022-11-28T13:12:49.552Z,28.27
2022-11-28T13:15:38.070Z,26.30
2022-11-28T13:18:26.156Z,28.90
2022-11-28T13:21:25.042Z,30.98
2022-11-28T13:23:56.324Z,29.80
2022-11-28T13:26:41.873Z,28.38
2022-11-28T13:29:40.467Z,30.92
2022-11-28T13:32:37.940Z,27.17
2022-11-28T13:35:05.509Z,28.80
2022-11-28T13:44:15.769Z,30.42
2022-11-28T13:46:44.611Z,33.93
2022-11-28T13:49:26.254Z,31.55
2022-11-28T13:52:31.746Z,30.38
2022-11-28T13:54:58.684Z,29.90
2022-11-28T13:57:38.405Z,29.60
2022-11-28T14:00:07.515Z,28.90
2022-11-28T14:02:43.556Z,28.58
2022-11-28T14:05:33.826Z,32.83
2022-11-28T14:08:02.073Z,30.35
2022-11-28T14:10:34.592Z,33.15
2022-11-28T14:13:24.314Z,28.58
2022-11-28T14:16:12.902Z,30.77
2022-11-28T14:19:18.060Z,27.73
2022-11-28T14:22:27.941Z,28.48
2022-11-28T14:25:04.680Z,32.40
2022-11-28T14:27:34.953Z,31.83
2022-11-28T14:30:02.320Z,35.15
2022-11-28T14:32:39.191Z,28.52
2022-11-28T14:35:15.565Z,30.20
2022-11-28T14:37:50.526Z,30.05
2022-11-28T14:40:54.848Z,29.05
2022-11-28T14:43:33.334Z,30.80
2022-11-28T14:46:20.641Z,29.35
2022-11-28T14:48:59.510Z,28.63
2022-11-28T14:51:49.528Z,29.20
2022-11-28T14:54:29.779Z,29.63
2022-11-28T14:56:59.930Z,28.02
2022-11-28T15:02:17.061Z,25.52
2022-11-28T15:04:53.710Z,29.63
2022-11-28T15:07:29.691Z,28.85
2022-11-28T15:10:07.245Z,31.65
2022-11-28T15:12:53.569Z,30.90
2022-11-28T15:15:22.597Z,30.17
2022-11-28T15:17:53.134Z,30.52
2022-11-28T15:20:42.376Z,31.98
2022-11-28T15:23:26.216Z,36.58
2022-11-28T15:25:58.005Z,30.00
2022-11-28T15:28:28.367Z,35.05
2022-11-28T15:30:57.126Z,36.78
2022-11-28T15:33:26.310Z,33.20
2022-11-28T15:36:10.892Z,35.13
2022-11-28T15:38:41.265Z,37.70
2022-11-28T15:41:08.531Z,38.38
2022-11-28T15:43:38.138Z,33.40
2022-11-28T15:46:07.971Z,37.63
2022-11-28T15:48:39.677Z,36.83
2022-11-28T15:51:07.692Z,39.38
2022-11-28T15:53:42.316Z,38.42
2022-11-28T15:56:19.116Z,36.42
2022-11-28T15:58:52.220Z,36.25
2022-11-28T16:01:27.168Z,36.30
2022-11-28T16:04:02.122Z,36.60
2022-11-28T16:06:34.814Z,46.83
2022-11-28T16:09:04.451Z,46.45
2022-11-28T16:11:35.272Z,57.08
2022-11-28T16:14:10.126Z,57.85
2022-11-28T16:16:38.759Z,56.08
2022-11-28T16:19:08.523Z,46.75
2022-11-28T16:21:46.470Z,40.23
2022-11-28T16:24:36.881Z,44.00
2022-11-28T16:27:06.447Z,44.83
2022-11-28T16:29:35.997Z,49.15
2022-11-28T16:32:12.068Z,50.95
2022-11-28T16:35:02.783Z,49.67
2022-11-28T16:37:31.316Z,43.72
2022-11-28T16:40:19.362Z,49.37
2022-11-28T16:42:58.922Z,44.20
2022-11-28T16:45:30.569Z,46.67
2022-11-28T16:48:09.806Z,44.97
2022-11-28T16:50:37.875Z,48.63
2022-11-28T16:53:05.393Z,42.53
2022-11-28T16:55:32.624Z,44.33
2022-11-28T16:58:22.254Z,46.67
2022-11-28T17:00:59.840Z,48.83
2022-11-28T17:03:46.918Z,45.13
2022-11-28T17:06:41.627Z,45.95
2022-11-28T17:09:12.293Z,47.20
2022-11-28T17:14:14.796Z,46.50
2022-11-28T17:16:42.566Z,45.03
2022-11-28T17:19:13.144Z,53.17
2022-11-28T17:21:57.879Z,54.47
2022-11-28T17:24:33.841Z,57.83
2022-11-28T17:27:02.778Z,49.13
2022-11-28T17:29:30.802Z,49.83
2022-11-28T17:31:59.540Z,47.67
2022-11-28T17:34:38.420Z,52.45
2022-11-28T17:37:06.438Z,46.17
2022-11-28T17:39:33.568Z,59.05
2022-11-28T17:42:01.108Z,46.22
2022-11-28T17:44:30.522Z,48.58
2022-11-28T17:47:00.663Z,51.53
2022-11-28T17:49:29.405Z,51.33
2022-11-28T17:51:56.819Z,47.38
2022-11-28T17:54:27.681Z,47.53
2022-11-28T17:56:55.705Z,56.90
2022-11-28T17:59:24.267Z,56.40
2022-11-28T18:01:51.338Z,51.78
2022-11-28T18:04:18.230Z,56.55
2022-11-28T18:06:46.797Z,58.65
2022-11-28T18:09:14.485Z,55.55
2022-11-28T18:11:44.908Z,58.65
2022-11-28T18:14:11.675Z,59.60
2022-11-28T18:16:40.311Z,66.50
2022-11-28T18:19:08.390Z,65.57
2022-11-28T18:21:35.221Z,67.55
2022-11-28T18:24:03.507Z,70.72
2022-11-28T18:26:30.407Z,65.97
2022-11-28T18:28:57.466Z,67.80
2022-11-28T18:31:28.729Z,72.10
2022-11-28T18:34:02.299Z,67.38
2022-11-28T18:36:32.266Z,65.13
2022-11-28T18:39:06.398Z,70.47
2022-11-28T18:41:33.362Z,73.78
2022-11-28T18:44:04.255Z,69.30
2022-11-28T18:46:35.324Z,68.43
2022-11-28T18:49:05.340Z,71.00
2022-11-28T18:51:35.160Z,68.85
2022-11-28T18:54:33.016Z,68.90
2022-11-28T18:57:00.329Z,73.53
2022-11-28T18:59:55.024Z,83.22
2022-11-28T19:02:45.816Z,83.13
2022-11-28T19:05:14.930Z,79.43
2022-11-28T19:07:41.801Z,78.43
2022-11-28T19:10:09.211Z,72.80
2022-11-28T19:12:37.260Z,70.97
2022-11-28T19:15:04.550Z,76.38
2022-11-28T19:17:38.884Z,74.30
2022-11-28T19:20:29.171Z,78.88
2022-11-28T19:23:07.520Z,83.85
2022-11-28T19:25:39.999Z,85.68
2022-11-28T19:28:07.407Z,75.63
2022-11-28T19:33:15.716Z,78.00
2022-11-28T19:35:42.369Z,72.93
2022-11-28T19:38:09.054Z,73.40
2022-11-28T19:40:36.464Z,70.85
2022-11-28T19:43:03.483Z,67.82
2022-11-28T19:45:30.251Z,78.15
2022-11-28T19:47:56.942Z,70.07
2022-11-28T19:50:24.047Z,70.75
2022-11-28T19:52:55.567Z,70.00
2022-11-28T19:55:24.554Z,70.93
2022-11-28T19:57:51.356Z,66.85
2022-11-28T20:00:21.355Z,65.97
2022-11-28T20:02:50.702Z,64.25
2022-11-28T20:05:17.727Z,76.55
2022-11-28T20:07:44.664Z,75.28
2022-11-28T20:10:11.497Z,74.03
2022-11-28T20:12:38.171Z,72.05
2022-11-28T20:15:05.283Z,74.60
2022-11-28T20:17:32.020Z,79.05
2022-11-28T20:19:58.806Z,72.90
2022-11-28T20:22:40.271Z,77.70
2022-11-28T20:25:07.737Z,85.40
2022-11-28T20:27:43.380Z,79.20
2022-11-28T20:30:14.374Z,75.97
2022-11-28T20:32:43.575Z,74.68
2022-11-28T20:35:10.749Z,75.55
2022-11-28T20:37:40.427Z,65.70
2022-11-28T20:40:07.864Z,74.80
2022-11-28T20:42:39.592Z,69.63
2022-11-28T20:45:09.886Z,74.53
2022-11-28T20:47:36.526Z,80.20
2022-11-28T20:50:05.089Z,76.88
2022-11-28T20:52:31.779Z,67.35
2022-11-28T20:54:58.806Z,79.72
2022-11-28T20:57:26.743Z,68.47
2022-11-28T20:59:59.463Z,77.00
2022-11-28T21:02:31.210Z,74.72
2022-11-28T21:04:58.023Z,68.72
2022-11-28T21:07:26.753Z,69.65
2022-11-28T21:09:59.907Z,68.05
2022-11-28T21:12:27.963Z,68.10
2022-11-28T21:14:54.711Z,66.63
2022-11-28T21:17:21.657Z,71.10
2022-11-28T21:19:48.408Z,69.45
2022-11-28T21:22:16.263Z,77.47
2022-11-28T21:27:26.740Z,66.63
2022-11-28T21:29:53.499Z,75.95
2022-11-28T21:32:24.492Z,75.72
2022-11-28T21:34:51.244Z,71.07
2022-11-28T21:37:17.978Z,65.95
2022-11-28T21:39:45.683Z,62.70
2022-11-28T21:42:17.442Z,63.58
2022-11-28T21:44:46.971Z,70.70
2022-11-28T21:47:13.830Z,64.40
2022-11-28T21:49:42.074Z,61.78
2022-11-28T21:52:10.588Z,68.65
2022-11-28T21:54:37.282Z,65.63
2022-11-28T21:57:04.079Z,61.22
2022-11-28T21:59:31.910Z,62.15
2022-11-28T22:02:07.227Z,64.25
2022-11-28T22:04:37.309Z,82.03
2022-11-28T22:07:05.661Z,83.95
2022-11-28T22:09:36.399Z,86.07
2022-11-28T22:14:38.428Z,74.05
2022-11-28T22:17:05.254Z,83.30
2022-11-28T22:19:32.060Z,84.75
2022-11-28T22:28:18.935Z,71.82
2022-11-28T22:30:52.323Z,72.60
2022-11-28T22:36:19.838Z,66.82
2022-11-28T22:38:47.457Z,66.53
2022-11-28T22:41:24.825Z,66.07
2022-11-28T22:46:22.678Z,74.72
2022-11-28T22:48:50.705Z,65.43
2022-11-28T22:51:21.829Z,66.28
2022-11-28T22:53:52.382Z,67.45
2022-11-28T22:56:19.103Z,65.93
2022-11-28T22:58:46.491Z,75.13
2022-11-28T23:01:17.487Z,68.00
2022-11-28T23:03:45.469Z,70.30
2022-11-28T23:06:18.842Z,62.65
2022-11-28T23:08:46.456Z,64.72
2022-11-28T23:11:19.184Z,70.13
2022-11-28T23:13:48.028Z,72.60
2022-11-28T23:16:20.436Z,66.10
2022-11-28T23:18:50.612Z,68.32
2022-11-28T23:21:19.007Z,68.90
2022-11-28T23:23:46.180Z,68.22
2022-11-28T23:26:19.926Z,69.78
2022-11-28T23:28:47.153Z,70.03
2022-11-28T23:31:17.495Z,75.25
2022-11-28T23:33:44.840Z,63.78
2022-11-28T23:36:18.839Z,69.57
2022-11-28T23:38:47.027Z,65.72
2022-11-28T23:41:14.093Z,66.53
2022-11-28T23:43:41.163Z,63.50
2022-11-28T23:46:10.102Z,66.85
2022-11-28T23:48:37.310Z,61.05
2022-11-28T23:51:06.235Z,70.90
2022-11-28T23:53:33.863Z,66.82
2022-11-28T23:56:11.210Z,64.38
2022-11-28T23:58:38.325Z,73.65
